Time;durP1;ratioP1;P1;durP2;ratioP2;P2;SDS_P1;SDS_P2;PMS_P1;PMS_P2;Temp;Humidity;BMP_temperature;BMP_pressure;BME280_temperature;BME280_humidity;BME280_pressure;Samples;Min_cycle;Max_cycle;Signal;HPM_P1;HPM_P2
2022/10/30 00:01:55;;;;;;;20.42;5.22;;;11.80;99.90;;;;;;7602708;19;20029;-70
2022/10/30 00:04:27;;;;;;;21.75;5.57;;;11.90;99.90;;;;;;7609534;19;20042;-71
2022/10/30 00:06:59;;;;;;;21.90;5.45;;;11.90;99.90;;;;;;7605518;19;20025;-70
2022/10/30 00:09:31;;;;;;;14.02;5.45;;;11.90;99.90;;;;;;7602316;19;20864;-70
2022/10/30 00:12:04;;;;;;;22.27;5.13;;;11.90;99.90;;;;;;7607781;19;20018;-70
2022/10/30 00:14:36;;;;;;;17.00;4.97;;;11.90;99.90;;;;;;7607162;19;20720;-70
2022/10/30 00:17:08;;;;;;;16.90;5.20;;;11.90;99.90;;;;;;7605863;19;20853;-70
2022/10/30 00:19:40;;;;;;;12.65;5.55;;;11.90;99.90;;;;;;7603818;19;20029;-70
2022/10/30 00:22:12;;;;;;;21.45;5.40;;;11.90;99.90;;;;;;7608872;19;20022;-70
2022/10/30 00:24:44;;;;;;;19.15;5.43;;;11.90;99.90;;;;;;7606129;19;20007;-70
2022/10/30 00:27:16;;;;;;;21.23;5.80;;;11.90;99.90;;;;;;7590365;19;20007;-70
2022/10/30 00:29:48;;;;;;;17.92;5.30;;;11.90;99.90;;;;;;7606304;19;20014;-70
2022/10/30 00:32:21;;;;;;;22.13;5.57;;;11.80;99.90;;;;;;7605346;19;20025;-71
2022/10/30 00:34:53;;;;;;;20.85;5.68;;;11.80;99.90;;;;;;7597437;19;20018;-71
2022/10/30 00:37:25;;;;;;;26.52;5.50;;;11.80;99.90;;;;;;7606463;19;20024;-71
2022/10/30 00:39:57;;;;;;;21.27;5.55;;;11.80;99.90;;;;;;7601505;19;20033;-70
2022/10/30 00:42:30;;;;;;;12.57;4.45;;;11.80;99.90;;;;;;7598755;19;20014;-71
2022/10/30 00:45:03;;;;;;;26.20;5.78;;;11.70;99.90;;;;;;7603811;19;20045;-71
2022/10/30 00:47:39;;;;;;;20.23;5.22;;;11.70;99.90;;;;;;7596017;19;20039;-71
2022/10/30 00:50:25;;;;;;;13.35;4.95;;;11.70;99.90;;;;;;7597906;19;20521;-71
2022/10/30 00:53:19;;;;;;;18.00;5.05;;;11.70;99.90;;;;;;7603447;19;20483;-71
2022/10/30 00:55:56;;;;;;;14.93;5.20;;;11.70;99.90;;;;;;7601645;19;20394;-71
2022/10/30 00:58:32;;;;;;;21.45;5.65;;;11.70;99.90;;;;;;7597419;19;20036;-71
2022/10/30 01:01:09;;;;;;;15.63;4.82;;;11.70;99.90;;;;;;7602923;19;20033;-71
2022/10/30 01:03:42;;;;;;;21.23;5.38;;;11.70;99.90;;;;;;7608065;19;20094;-71
2022/10/30 01:06:15;;;;;;;20.42;5.38;;;11.70;99.90;;;;;;7598449;19;20777;-71
2022/10/30 01:08:48;;;;;;;21.02;5.53;;;11.70;99.90;;;;;;7616441;19;20060;-71
2022/10/30 01:11:26;;;;;;;24.55;5.60;;;11.70;99.90;;;;;;7618039;19;20034;-71
2022/10/30 01:14:02;;;;;;;15.27;4.78;;;11.70;99.90;;;;;;7605631;19;20025;-70
2022/10/30 01:16:46;;;;;;;13.05;4.38;;;11.70;99.90;;;;;;7614414;19;20403;-71
2022/10/30 01:19:41;;;;;;;23.38;5.03;;;11.70;99.90;;;;;;7612225;19;21172;-71
2022/10/30 01:22:22;;;;;;;13.32;4.78;;;11.70;99.90;;;;;;7604424;19;20019;-71
2022/10/30 01:25:34;;;;;;;17.65;5.07;;;11.60;99.90;;;;;;7609429;19;20374;-71
2022/10/30 01:28:27;;;;;;;24.00;4.75;;;11.50;99.90;;;;;;7611761;19;20133;-71
2022/10/30 01:31:26;;;;;;;17.38;4.88;;;11.50;99.90;;;;;;7601989;19;20018;-71
2022/10/30 01:34:23;;;;;;;22.38;5.25;;;11.40;99.90;;;;;;7611733;19;20014;-70
2022/10/30 01:37:24;;;;;;;18.23;5.10;;;11.40;99.90;;;;;;7612336;19;20018;-71
2022/10/30 01:39:56;;;;;;;18.65;4.93;;;11.40;99.90;;;;;;7601855;19;20018;-71
2022/10/30 01:42:40;;;;;;;19.42;5.20;;;11.30;99.90;;;;;;7612931;19;20041;-71
2022/10/30 01:45:30;;;;;;;17.90;5.22;;;11.20;99.90;;;;;;7609522;19;20045;-71
2022/10/30 01:48:23;;;;;;;26.67;6.10;;;11.20;99.90;;;;;;7601739;19;20022;-71
2022/10/30 01:51:13;;;;;;;16.17;5.32;;;11.20;99.90;;;;;;7610704;19;20710;-71
2022/10/30 01:54:07;;;;;;;15.50;4.80;;;11.10;99.90;;;;;;7608840;19;20831;-71
2022/10/30 01:57:36;;;;;;;22.30;6.03;;;11.10;99.90;;;;;;7594725;19;20432;-71
2022/10/30 02:00:13;;;;;;;18.90;5.07;;;11.10;99.90;;;;;;7594167;19;20620;-71
2022/10/30 02:02:50;;;;;;;24.92;6.38;;;11.10;99.90;;;;;;7590371;19;20038;-71
2022/10/30 02:05:38;;;;;;;17.85;5.10;;;11.10;99.90;;;;;;7598661;19;20015;-71
2022/10/30 02:08:11;;;;;;;15.10;5.50;;;11.00;99.90;;;;;;7610402;19;20025;-71
2022/10/30 02:10:46;;;;;;;23.77;6.13;;;11.00;99.90;;;;;;7604596;19;20024;-71
2022/10/30 02:13:20;;;;;;;24.90;5.28;;;11.00;99.90;;;;;;7609195;19;20017;-71
2022/10/30 02:15:52;;;;;;;21.20;5.43;;;11.00;99.90;;;;;;7600132;19;20038;-71
2022/10/30 02:18:24;;;;;;;22.00;5.82;;;10.90;99.90;;;;;;7603666;19;20861;-71
2022/10/30 02:20:57;;;;;;;15.73;5.25;;;10.90;99.90;;;;;;7604274;19;20014;-71
2022/10/30 02:23:30;;;;;;;21.02;4.97;;;10.90;99.90;;;;;;7610994;19;20022;-71
2022/10/30 02:26:02;;;;;;;15.43;4.50;;;10.90;99.90;;;;;;7589190;19;22307;-71
2022/10/30 02:28:34;;;;;;;23.20;5.85;;;10.70;99.90;;;;;;7603266;19;20010;-71
2022/10/30 02:31:06;;;;;;;18.33;5.80;;;10.70;99.90;;;;;;7607010;19;20752;-71
2022/10/30 02:33:44;;;;;;;15.25;5.78;;;10.70;99.90;;;;;;7610595;19;20030;-71
2022/10/30 02:36:17;;;;;;;16.95;5.85;;;10.70;99.90;;;;;;7584213;19;20019;-71
2022/10/30 02:38:50;;;;;;;15.75;5.82;;;10.60;99.90;;;;;;7606644;19;20041;-71
2022/10/30 02:41:23;;;;;;;21.90;6.20;;;10.60;99.90;;;;;;7607995;19;20785;-71
2022/10/30 02:43:55;;;;;;;18.65;5.82;;;10.50;99.90;;;;;;7604324;19;20022;-71
2022/10/30 02:46:27;;;;;;;19.77;6.00;;;10.50;99.90;;;;;;7601158;19;20055;-71
2022/10/30 02:48:59;;;;;;;19.70;6.07;;;10.50;99.90;;;;;;7608972;19;20039;-71
2022/10/30 02:51:32;;;;;;;18.33;5.68;;;10.40;99.90;;;;;;7601951;19;20017;-71
2022/10/30 02:54:04;;;;;;;18.88;6.10;;;10.40;99.90;;;;;;7610603;19;20022;-70
2022/10/30 02:56:39;;;;;;;22.52;5.10;;;10.40;99.90;;;;;;7604721;19;20327;-71
2022/10/30 02:59:11;;;;;;;14.90;5.03;;;10.50;99.90;;;;;;7597779;19;20085;-71
2022/10/30 03:01:43;;;;;;;19.30;6.25;;;10.60;99.90;;;;;;7602746;19;20011;-71
2022/10/30 03:04:16;;;;;;;14.40;5.53;;;10.60;99.90;;;;;;7610291;19;20010;-71
2022/10/30 03:06:48;;;;;;;13.88;4.55;;;10.50;99.90;;;;;;7600606;19;20034;-71
2022/10/30 03:09:21;;;;;;;17.73;5.85;;;10.50;99.90;;;;;;7607504;19;20102;-71
2022/10/30 03:11:53;;;;;;;18.40;5.80;;;10.50;99.90;;;;;;7612548;19;21418;-70
2022/10/30 03:14:27;;;;;;;;;;;10.40;99.90;;;;;;7602112;19;20006;-71
2022/10/30 03:16:59;;;;;;;19.17;5.93;;;10.40;99.90;;;;;;7608814;19;19922;-69
2022/10/30 03:19:31;;;;;;;18.65;6.10;;;10.40;99.90;;;;;;7592656;19;20015;-70
2022/10/30 03:22:03;;;;;;;16.98;4.70;;;10.20;99.90;;;;;;7600334;19;20014;-71
2022/10/30 03:24:35;;;;;;;16.33;5.00;;;10.40;99.90;;;;;;7598566;19;20015;-71
2022/10/30 03:27:07;;;;;;;17.95;5.15;;;10.30;99.90;;;;;;7606649;19;20011;-71
2022/10/30 03:29:42;;;;;;;20.27;5.28;;;10.30;99.90;;;;;;7594647;19;20010;-70
2022/10/30 03:32:16;;;;;;;20.23;6.30;;;10.30;99.90;;;;;;7600724;19;20491;-71
2022/10/30 03:34:54;;;;;;;12.80;5.32;;;10.40;99.90;;;;;;7600528;19;20074;-71
2022/10/30 03:37:26;;;;;;;12.27;4.80;;;10.40;99.90;;;;;;7604383;19;20026;-71
2022/10/30 03:39:58;;;;;;;15.15;5.70;;;10.40;99.90;;;;;;7585854;19;20018;-71
2022/10/30 03:42:31;;;;;;;21.02;6.57;;;10.20;99.90;;;;;;7605589;19;20019;-70
2022/10/30 03:45:03;;;;;;;19.10;6.13;;;10.10;99.90;;;;;;7597462;19;20492;-71
2022/10/30 03:47:39;;;;;;;19.88;6.90;;;10.20;99.90;;;;;;7594434;19;20894;-70
2022/10/30 03:50:13;;;;;;;15.10;6.10;;;10.30;99.90;;;;;;7604645;19;20017;-71
2022/10/30 03:52:45;;;;;;;14.82;5.72;;;10.40;99.90;;;;;;7611228;19;21027;-71
2022/10/30 03:55:17;;;;;;;13.70;5.78;;;10.30;99.90;;;;;;7596445;19;20009;-70
2022/10/30 03:57:49;;;;;;;13.50;5.60;;;10.30;99.90;;;;;;7607724;19;20018;-71
2022/10/30 04:00:22;;;;;;;18.48;6.78;;;10.30;99.90;;;;;;7600345;19;20039;-71
2022/10/30 04:02:59;;;;;;;22.48;6.47;;;10.40;99.90;;;;;;7597490;19;20026;-71
2022/10/30 04:05:33;;;;;;;16.88;5.32;;;10.40;99.90;;;;;;7596319;19;20018;-71
2022/10/30 04:08:11;;;;;;;13.85;5.97;;;10.30;99.90;;;;;;7598710;19;20022;-71
2022/10/30 04:10:45;;;;;;;18.00;6.15;;;10.30;99.90;;;;;;7602885;19;20010;-70
2022/10/30 04:13:19;;;;;;;;;;;10.30;99.90;;;;;;7607067;19;20010;-71
2022/10/30 04:15:55;;;;;;;15.40;5.72;;;10.30;99.90;;;;;;7594476;19;19921;-71
2022/10/30 04:18:29;;;;;;;17.35;6.28;;;10.20;99.90;;;;;;7608065;19;20014;-71
2022/10/30 04:21:02;;;;;;;19.80;6.10;;;10.30;99.90;;;;;;7605627;19;20548;-70
2022/10/30 04:23:35;;;;;;;20.05;6.28;;;10.20;99.90;;;;;;7608047;19;20431;-71
2022/10/30 04:26:08;;;;;;;19.17;7.03;;;10.00;99.90;;;;;;7595160;19;20022;-71
2022/10/30 04:28:43;;;;;;;17.33;5.60;;;10.00;99.90;;;;;;7605956;19;20078;-71
2022/10/30 04:31:15;;;;;;;21.35;6.88;;;10.00;99.90;;;;;;7599826;19;21443;-71
2022/10/30 04:33:47;;;;;;;22.50;6.78;;;9.90;99.90;;;;;;7608250;19;20018;-71
2022/10/30 04:36:20;;;;;;;21.90;6.97;;;9.90;99.90;;;;;;7597063;19;20022;-71
2022/10/30 04:38:53;;;;;;;;;;;9.80;99.90;;;;;;7603281;19;20037;-71
2022/10/30 04:41:26;;;;;;;20.05;6.00;;;9.80;99.90;;;;;;7601300;19;20396;-71
2022/10/30 04:44:07;;;;;;;15.70;6.07;;;9.80;99.90;;;;;;7611438;19;20015;-71
2022/10/30 04:46:39;;;;;;;19.92;7.00;;;9.90;99.90;;;;;;7603693;19;20135;-71
2022/10/30 04:49:13;;;;;;;19.58;6.72;;;9.80;99.90;;;;;;7612616;19;20022;-71
2022/10/30 04:51:46;;;;;;;14.25;5.82;;;9.70;99.90;;;;;;7607626;19;20115;-71
2022/10/30 04:54:19;;;;;;;18.55;6.38;;;9.70;99.90;;;;;;7602531;19;20019;-71
2022/10/30 04:56:52;;;;;;;20.83;6.63;;;9.80;99.90;;;;;;7613718;19;20612;-70
2022/10/30 04:59:24;;;;;;;27.52;6.78;;;9.80;99.90;;;;;;7615639;19;20018;-71
2022/10/30 05:01:58;;;;;;;12.85;5.47;;;9.80;99.90;;;;;;7591874;19;20089;-71
2022/10/30 05:04:30;;;;;;;15.50;5.75;;;9.90;99.90;;;;;;7602903;19;20025;-71
2022/10/30 05:07:03;;;;;;;16.48;6.60;;;9.90;99.90;;;;;;7596122;19;20092;-71
2022/10/30 05:09:35;;;;;;;17.33;6.22;;;9.90;99.90;;;;;;7613624;19;21245;-71
2022/10/30 05:12:07;;;;;;;32.63;6.70;;;9.80;99.90;;;;;;7612626;19;20077;-71
2022/10/30 05:14:48;;;;;;;17.33;6.10;;;9.80;99.90;;;;;;7611814;19;20018;-71
2022/10/30 05:17:20;;;;;;;15.48;6.07;;;9.80;99.90;;;;;;7610579;19;20026;-71
2022/10/30 05:19:55;;;;;;;13.68;5.20;;;9.70;99.90;;;;;;7616006;19;20454;-70
2022/10/30 05:22:27;;;;;;;17.80;6.57;;;9.70;99.90;;;;;;7609170;19;20022;-70
2022/10/30 05:24:59;;;;;;;22.33;6.75;;;9.70;99.90;;;;;;7554234;19;20587;-71
2022/10/30 05:27:31;;;;;;;15.75;5.32;;;9.80;99.90;;;;;;7571192;19;20115;-71
2022/10/30 05:30:06;;;;;;;21.55;5.90;;;9.80;99.90;;;;;;7586609;19;20018;-71
2022/10/30 05:32:39;;;;;;;18.58;5.57;;;9.70;99.90;;;;;;7604456;19;20019;-71
2022/10/30 05:35:11;;;;;;;17.42;5.90;;;9.70;99.90;;;;;;7594518;19;20014;-71
2022/10/30 05:37:43;;;;;;;21.13;5.60;;;9.80;99.90;;;;;;7604272;19;20034;-72
2022/10/30 05:40:16;;;;;;;14.02;5.65;;;9.90;99.90;;;;;;7607103;19;20056;-71
2022/10/30 05:42:49;;;;;;;14.57;5.88;;;9.90;99.90;;;;;;7583605;19;20550;-72
2022/10/30 05:45:21;;;;;;;17.15;5.90;;;9.90;99.90;;;;;;7579092;19;20023;-72
2022/10/30 05:47:59;;;;;;;18.38;5.90;;;10.00;99.90;;;;;;7590573;19;20018;-72
2022/10/30 05:50:36;;;;;;;14.55;5.05;;;10.00;99.90;;;;;;7612135;19;20050;-72
2022/10/30 05:53:27;;;;;;;24.88;6.53;;;9.80;99.90;;;;;;7599757;19;20125;-72
2022/10/30 05:56:01;;;;;;;27.77;6.07;;;9.80;99.90;;;;;;7600277;19;20085;-72
2022/10/30 05:58:36;;;;;;;26.17;6.88;;;9.90;99.90;;;;;;7594896;19;20890;-72
2022/10/30 06:01:09;;;;;;;15.52;5.90;;;9.90;99.90;;;;;;7596806;19;20018;-72
2022/10/30 06:03:48;;;;;;;14.95;5.78;;;9.80;99.90;;;;;;7610415;19;20023;-73
2022/10/30 06:06:20;;;;;;;20.25;6.35;;;9.70;99.90;;;;;;7585331;19;21032;-73
2022/10/30 06:08:54;;;;;;;24.75;6.00;;;9.80;99.90;;;;;;7593479;19;20122;-72
2022/10/30 06:11:53;;;;;;;17.52;5.97;;;9.80;99.90;;;;;;7596674;19;21207;-72
2022/10/30 06:14:32;;;;;;;28.20;7.03;;;9.60;99.90;;;;;;7603022;19;20023;-74
2022/10/30 06:17:04;;;;;;;15.60;6.00;;;9.70;99.90;;;;;;7591707;19;20019;-71
2022/10/30 06:19:36;;;;;;;15.43;6.70;;;9.80;99.90;;;;;;7589714;19;20014;-71
2022/10/30 06:22:28;;;;;;;24.38;6.45;;;9.70;99.90;;;;;;7597156;19;20021;-70
2022/10/30 06:25:06;;;;;;;23.73;5.60;;;9.70;99.90;;;;;;7586055;19;20026;-70
2022/10/30 06:28:14;;;;;;;22.70;6.75;;;9.80;99.90;;;;;;7580305;19;20078;-70
2022/10/30 06:30:46;;;;;;;18.38;5.88;;;9.80;99.90;;;;;;7573661;19;20666;-70
2022/10/30 06:33:18;;;;;;;16.83;6.70;;;9.90;99.90;;;;;;7589961;19;20022;-69
2022/10/30 06:35:54;;;;;;;17.60;6.00;;;10.00;99.90;;;;;;7596761;19;20029;-70
2022/10/30 06:38:27;;;;;;;24.20;7.63;;;10.00;99.90;;;;;;7591373;19;20059;-70
2022/10/30 06:40:59;;;;;;;17.63;6.07;;;10.10;99.90;;;;;;7603514;19;20268;-70
2022/10/30 06:43:37;;;;;;;22.35;7.05;;;10.10;99.90;;;;;;7610767;19;20015;-69
2022/10/30 06:46:15;;;;;;;24.75;7.22;;;10.20;99.90;;;;;;7581735;19;20006;-70
2022/10/30 06:48:48;;;;;;;21.48;6.68;;;10.20;99.90;;;;;;7588826;19;20048;-70
2022/10/30 06:51:21;;;;;;;21.05;5.93;;;10.40;99.90;;;;;;7588522;19;20018;-70
2022/10/30 06:53:56;;;;;;;19.50;7.22;;;10.50;99.90;;;;;;7592808;19;20019;-70
2022/10/30 06:56:48;;;;;;;15.15;6.10;;;10.50;99.90;;;;;;7591317;19;20047;-70
2022/10/30 06:59:40;;;;;;;21.55;6.28;;;10.60;99.90;;;;;;7592676;19;20079;-70
2022/10/30 07:02:35;;;;;;;17.42;6.57;;;10.80;99.90;;;;;;7588373;19;20102;-69
2022/10/30 07:05:11;;;;;;;21.60;5.95;;;10.90;99.90;;;;;;7588910;19;20045;-70
2022/10/30 07:07:43;;;;;;;23.65;6.28;;;11.00;99.90;;;;;;7582740;19;20045;-70
2022/10/30 07:10:15;;;;;;;18.63;6.30;;;11.20;99.90;;;;;;7582098;19;21116;-70
2022/10/30 07:13:14;;;;;;;26.00;6.07;;;11.40;99.90;;;;;;7590747;19;20025;-70
2022/10/30 07:16:12;;;;;;;15.75;6.30;;;11.50;99.90;;;;;;7573526;19;20118;-71
2022/10/30 07:18:46;;;;;;;29.05;5.85;;;11.70;99.90;;;;;;7550826;19;20014;-70
2022/10/30 07:21:18;;;;;;;19.23;6.00;;;11.90;99.90;;;;;;7582758;19;20022;-71
2022/10/30 07:23:52;;;;;;;19.10;5.40;;;12.00;99.90;;;;;;7585403;19;20557;-70
2022/10/30 07:26:51;;;;;;;23.50;6.15;;;12.20;99.90;;;;;;7583554;19;20102;-71
2022/10/30 07:29:36;;;;;;;22.17;6.53;;;12.30;99.90;;;;;;7592552;19;20056;-70
2022/10/30 07:32:23;;;;;;;20.40;6.60;;;12.40;99.90;;;;;;7566579;19;20619;-70
2022/10/30 07:35:13;;;;;;;16.45;6.93;;;12.50;99.90;;;;;;7575571;19;20025;-72
2022/10/30 07:38:05;;;;;;;18.55;6.25;;;12.60;99.90;;;;;;7597010;19;20015;-70
2022/10/30 07:40:52;;;;;;;22.45;6.15;;;12.70;99.90;;;;;;7594058;19;20038;-70
2022/10/30 07:43:48;;;;;;;17.08;6.10;;;12.70;99.90;;;;;;7588975;19;20022;-71
2022/10/30 07:46:52;;;;;;;20.73;5.28;;;12.80;99.90;;;;;;7592367;19;20082;-71
2022/10/30 07:49:49;;;;;;;19.48;5.50;;;12.90;99.90;;;;;;7592377;19;20030;-71
2022/10/30 07:52:22;;;;;;;21.02;6.25;;;13.10;99.90;;;;;;7582293;19;20007;-71
2022/10/30 07:54:55;;;;;;;13.63;5.43;;;13.20;99.90;;;;;;7584985;19;20021;-72
2022/10/30 07:57:46;;;;;;;14.25;5.43;;;13.20;99.90;;;;;;7596748;19;20014;-71
2022/10/30 08:00:37;;;;;;;26.10;4.43;;;13.30;99.90;;;;;;7592687;19;20018;-71
2022/10/30 08:03:23;;;;;;;15.32;5.05;;;13.50;99.90;;;;;;7578462;19;20010;-71
2022/10/30 08:06:00;;;;;;;13.63;4.50;;;13.60;99.90;;;;;;7578108;19;20047;-71
2022/10/30 08:08:42;;;;;;;11.48;4.43;;;13.80;99.90;;;;;;7547818;19;20017;-71
2022/10/30 08:11:28;;;;;;;16.88;4.60;;;14.00;99.90;;;;;;7561533;19;20010;-71
2022/10/30 08:14:02;;;;;;;14.90;5.07;;;14.10;99.90;;;;;;7573600;19;21950;-71
2022/10/30 08:16:35;;;;;;;12.20;4.35;;;14.20;99.90;;;;;;7580703;19;20521;-72
2022/10/30 08:19:07;;;;;;;17.23;4.45;;;14.20;99.90;;;;;;7565778;19;20034;-71
2022/10/30 08:21:39;;;;;;;14.23;4.15;;;14.20;99.90;;;;;;7574527;19;20024;-71
2022/10/30 08:24:17;;;;;;;13.32;4.10;;;14.30;99.90;;;;;;7580906;19;20045;-72
2022/10/30 08:26:51;;;;;;;19.45;4.40;;;14.40;99.90;;;;;;7599398;19;20025;-71
2022/10/30 08:29:26;;;;;;;13.32;4.18;;;14.50;99.90;;;;;;7558383;19;20889;-71
2022/10/30 08:31:59;;;;;;;20.35;4.13;;;14.60;99.90;;;;;;7540998;19;20140;-70
2022/10/30 08:34:50;;;;;;;16.30;4.32;;;14.80;99.90;;;;;;7569906;19;20010;-71
2022/10/30 08:37:23;;;;;;;12.10;4.20;;;15.10;99.90;;;;;;7565223;19;20914;-71
2022/10/30 08:39:57;;;;;;;;;;;15.20;99.40;;;;;;7568694;19;20327;-71
2022/10/30 08:42:54;;;;;;;22.42;4.40;;;15.30;99.60;;;;;;7538905;19;19923;-70
2022/10/30 08:45:28;;;;;;;17.73;3.55;;;15.50;99.30;;;;;;7550544;19;20026;-70
2022/10/30 08:48:23;;;;;;;12.13;3.97;;;15.60;99.00;;;;;;7559228;19;20010;-70
2022/10/30 08:51:02;;;;;;;14.82;4.72;;;15.80;97.10;;;;;;7548778;19;20557;-70
2022/10/30 08:53:39;;;;;;;15.00;4.13;;;15.90;97.00;;;;;;7577254;19;21014;-70
2022/10/30 08:56:16;;;;;;;20.45;4.68;;;15.90;96.90;;;;;;7575011;19;20018;-70
2022/10/30 08:58:56;;;;;;;14.65;4.00;;;16.00;96.90;;;;;;7586971;19;20018;-70
2022/10/30 09:01:28;;;;;;;13.60;3.90;;;16.10;97.50;;;;;;7577858;19;21198;-71
2022/10/30 09:04:19;;;;;;;15.23;4.28;;;16.10;97.40;;;;;;7552500;19;20022;-70
2022/10/30 09:07:27;;;;;;;11.35;4.95;;;16.20;97.40;;;;;;7559001;19;20018;-69
2022/10/30 09:10:17;;;;;;;17.15;4.32;;;16.40;96.60;;;;;;7578478;19;20038;-68
2022/10/30 09:12:54;;;;;;;16.50;4.13;;;16.50;95.90;;;;;;7578869;19;20539;-69
2022/10/30 09:15:28;;;;;;;19.42;4.65;;;16.60;95.90;;;;;;7573278;19;20033;-69
2022/10/30 09:18:02;;;;;;;14.60;4.03;;;16.70;95.20;;;;;;7548449;19;20022;-69
2022/10/30 09:20:34;;;;;;;13.73;4.25;;;16.80;95.50;;;;;;7531168;19;20713;-69
2022/10/30 09:23:07;;;;;;;18.75;4.60;;;16.90;95.30;;;;;;7552925;19;20010;-68
2022/10/30 09:25:40;;;;;;;11.00;4.22;;;16.90;94.80;;;;;;7568980;19;20579;-69
2022/10/30 09:28:35;;;;;;;17.58;4.57;;;17.00;94.50;;;;;;7591439;19;20019;-69
2022/10/30 09:31:26;;;;;;;14.55;4.05;;;17.10;94.30;;;;;;7574995;19;20018;-73
2022/10/30 09:33:58;;;;;;;15.68;4.20;;;17.20;93.60;;;;;;7593574;19;20141;-68
2022/10/30 09:36:46;;;;;;;12.63;4.43;;;17.30;92.30;;;;;;7602467;19;20142;-71
2022/10/30 09:39:18;;;;;;;11.27;4.05;;;17.40;91.80;;;;;;7604204;19;20564;-71
2022/10/30 09:42:21;;;;;;;14.13;3.83;;;17.60;90.90;;;;;;7617876;19;20379;-71
2022/10/30 09:45:24;;;;;;;16.60;3.85;;;17.70;90.10;;;;;;7593173;19;20477;-68
2022/10/30 09:48:18;;;;;;;15.65;3.92;;;17.80;90.50;;;;;;7584990;19;20030;-69
2022/10/30 09:51:22;;;;;;;16.40;4.22;;;17.90;92.40;;;;;;7583100;19;20925;-69
2022/10/30 09:54:14;;;;;;;15.85;4.22;;;18.00;92.90;;;;;;7583901;19;20007;-69
2022/10/30 09:57:05;;;;;;;9.93;3.60;;;18.10;92.30;;;;;;7590438;19;21137;-68
2022/10/30 09:59:48;;;;;;;15.30;4.00;;;18.20;92.50;;;;;;7598369;19;20026;-70
2022/10/30 10:03:17;;;;;;;13.30;3.92;;;18.30;92.40;;;;;;7590128;19;20018;-69
2022/10/30 10:06:19;;;;;;;;;;;18.40;91.50;;;;;;7585257;19;20007;-68
2022/10/30 10:09:25;;;;;;;14.25;4.05;;;18.50;91.30;;;;;;7567671;19;19963;-69
2022/10/30 10:12:38;;;;;;;17.42;4.47;;;18.60;90.80;;;;;;7592728;19;20011;-69
2022/10/30 10:15:18;;;;;;;13.18;3.95;;;18.70;90.20;;;;;;7605891;19;20014;-69
2022/10/30 10:17:52;;;;;;;16.25;3.53;;;18.80;90.40;;;;;;7613347;19;20022;-69
2022/10/30 10:20:31;;;;;;;16.92;4.07;;;18.90;90.00;;;;;;7593401;19;20013;-69
2022/10/30 10:23:18;;;;;;;8.45;3.33;;;19.00;88.00;;;;;;7609017;19;20971;-68
2022/10/30 10:25:57;;;;;;;15.70;4.22;;;19.10;87.60;;;;;;7589475;19;20022;-69
2022/10/30 10:28:51;;;;;;;19.08;3.70;;;19.20;87.00;;;;;;7591923;19;20018;-69
2022/10/30 10:31:55;;;;;;;14.05;4.15;;;19.30;87.50;;;;;;7569334;19;20419;-70
2022/10/30 10:34:30;;;;;;;;;;;19.40;88.00;;;;;;7593906;19;20014;-70
2022/10/30 10:37:31;;;;;;;13.05;3.63;;;19.50;88.50;;;;;;7579440;19;20537;-70
2022/10/30 10:40:25;;;;;;;17.05;3.67;;;19.70;88.00;;;;;;7570396;19;20560;-70
2022/10/30 10:43:00;;;;;;;16.60;4.32;;;19.90;84.80;;;;;;7552600;19;20014;-70
2022/10/30 10:45:53;;;;;;;14.88;4.45;;;20.00;84.20;;;;;;7577632;19;20130;-70
2022/10/30 10:48:34;;;;;;;17.60;4.32;;;20.00;82.90;;;;;;7579839;19;20018;-70
2022/10/30 10:51:28;;;;;;;12.07;4.13;;;20.20;80.90;;;;;;7574585;19;20027;-70
2022/10/30 10:54:15;;;;;;;;;;;20.40;81.20;;;;;;7590376;19;20113;-70
2022/10/30 10:56:49;;;;;;;17.55;4.07;;;20.50;80.40;;;;;;7587425;19;20005;-70
2022/10/30 10:59:44;;;;;;;16.20;3.97;;;20.70;79.60;;;;;;7587298;19;20010;-70
2022/10/30 11:02:38;;;;;;;13.30;4.80;;;20.80;78.30;;;;;;7564912;19;20017;-71
2022/10/30 11:05:35;;;;;;;18.25;3.92;;;21.00;79.70;;;;;;7582872;19;20010;-70
2022/10/30 11:08:22;;;;;;;16.08;3.85;;;21.30;79.00;;;;;;7536890;19;20015;-70
2022/10/30 11:11:05;;;;;;;14.18;4.28;;;21.80;73.90;;;;;;7582908;19;20493;-70
2022/10/30 11:13:40;;;;;;;14.32;4.43;;;22.90;69.10;;;;;;7582739;19;20025;-70
2022/10/30 11:16:45;;;;;;;11.70;5.22;;;23.20;70.30;;;;;;7560271;19;20018;-70
2022/10/30 11:19:18;;;;;;;19.65;4.40;;;24.00;69.00;;;;;;7576303;19;20014;-70
2022/10/30 11:21:53;;;;;;;26.83;5.53;;;26.90;60.60;;;;;;7582591;19;20623;-70
2022/10/30 11:24:29;;;;;;;15.35;4.50;;;26.90;58.40;;;;;;7547006;19;20018;-70
2022/10/30 11:27:23;;;;;;;19.88;4.47;;;26.60;58.90;;;;;;7555603;19;20042;-70
2022/10/30 11:30:00;;;;;;;13.40;5.05;;;27.40;54.10;;;;;;7590764;19;20111;-70
2022/10/30 11:32:33;;;;;;;20.33;4.45;;;28.50;53.90;;;;;;7589388;19;20024;-70
2022/10/30 11:35:09;;;;;;;17.30;5.03;;;29.50;52.30;;;;;;7527522;19;20014;-69
2022/10/30 11:37:42;;;;;;;13.20;4.28;;;29.30;50.50;;;;;;7558776;19;20029;-70
2022/10/30 11:40:21;;;;;;;16.08;4.85;;;28.90;50.00;;;;;;7560359;19;20011;-70
2022/10/30 11:43:03;;;;;;;20.35;4.70;;;30.60;48.80;;;;;;7548403;19;21067;-70
2022/10/30 11:45:42;;;;;;;14.93;4.40;;;32.90;47.10;;;;;;7575897;19;20038;-70
2022/10/30 11:48:28;;;;;;;18.23;5.05;;;34.20;45.40;;;;;;7574729;19;20466;-70
2022/10/30 11:51:02;;;;;;;16.20;5.03;;;34.60;44.20;;;;;;7588687;19;20019;-69
2022/10/30 11:53:47;;;;;;;18.98;4.60;;;34.30;42.90;;;;;;7574202;19;20019;-69
2022/10/30 11:56:21;;;;;;;15.88;4.25;;;31.40;45.80;;;;;;7569665;19;20971;-69
2022/10/30 11:58:56;;;;;;;17.33;5.30;;;29.30;48.70;;;;;;7552166;19;20034;-69
2022/10/30 12:01:56;;;;;;;16.60;4.45;;;28.50;51.00;;;;;;7568088;19;20010;-69
2022/10/30 12:04:31;;;;;;;14.85;4.93;;;27.50;52.40;;;;;;7569830;19;20022;-70
2022/10/30 12:07:07;;;;;;;19.80;4.97;;;26.70;54.60;;;;;;7564225;19;20052;-69
2022/10/30 12:09:45;;;;;;;21.67;4.88;;;27.20;53.50;;;;;;7565230;19;20034;-69
2022/10/30 12:12:20;;;;;;;19.90;5.15;;;26.90;53.70;;;;;;7588888;19;20021;-69
2022/10/30 12:14:52;;;;;;;11.55;3.92;;;26.30;53.40;;;;;;7574729;19;20725;-69
2022/10/30 12:17:24;;;;;;;18.00;4.45;;;25.80;54.70;;;;;;7583948;19;20018;-70
2022/10/30 12:20:05;;;;;;;18.25;4.60;;;25.30;55.60;;;;;;7565017;19;21085;-69
2022/10/30 12:22:37;;;;;;;18.13;4.45;;;25.10;55.80;;;;;;7592989;19;20022;-69
2022/10/30 12:25:25;;;;;;;20.65;5.47;;;24.80;57.70;;;;;;7585602;19;20022;-70
2022/10/30 12:28:06;;;;;;;17.77;4.25;;;24.20;58.40;;;;;;7612401;19;20025;-70
2022/10/30 12:30:45;;;;;;;11.25;4.20;;;24.10;58.90;;;;;;7599131;19;20025;-70
2022/10/30 12:33:37;;;;;;;17.55;4.25;;;24.00;58.80;;;;;;7594050;19;20030;-70
2022/10/30 12:36:14;;;;;;;17.73;4.38;;;24.10;59.10;;;;;;7607131;19;20359;-70
2022/10/30 12:39:02;;;;;;;11.05;4.70;;;24.10;58.50;;;;;;7595324;19;20049;-70
2022/10/30 12:41:44;;;;;;;17.13;4.40;;;24.40;57.50;;;;;;7592968;19;20026;-69
2022/10/30 12:44:28;;;;;;;15.40;4.40;;;24.80;57.30;;;;;;7605422;19;20022;-70
2022/10/30 12:47:05;;;;;;;;;;;25.90;54.90;;;;;;7615948;19;20026;-70
2022/10/30 12:50:02;;;;;;;14.70;4.75;;;27.10;53.20;;;;;;7561139;19;19918;-69
2022/10/30 12:53:06;;;;;;;16.58;4.95;;;28.60;51.00;;;;;;7590815;19;20018;-69
2022/10/30 12:55:40;;;;;;;;;;;29.80;48.40;;;;;;7607910;19;20010;-70
2022/10/30 12:58:30;;;;;;;13.10;4.75;;;29.40;47.70;;;;;;7607168;19;20219;-70
2022/10/30 13:01:35;;;;;;;25.55;5.05;;;29.10;48.90;;;;;;7612229;19;20430;-70
2022/10/30 13:04:22;;;;;;;15.77;4.80;;;28.30;49.70;;;;;;7578783;19;20042;-70
2022/10/30 13:07:19;;;;;;;22.88;4.82;;;28.30;49.70;;;;;;7614219;19;20025;-69
2022/10/30 13:10:28;;;;;;;17.88;4.72;;;27.30;50.80;;;;;;7599723;19;20021;-70
2022/10/30 13:13:21;;;;;;;12.63;4.88;;;26.30;53.70;;;;;;7611517;19;20347;-70
2022/10/30 13:15:59;;;;;;;14.85;4.25;;;25.60;55.50;;;;;;7620182;19;20023;-70
2022/10/30 13:18:32;;;;;;;17.05;4.30;;;25.30;55.70;;;;;;7601064;19;20017;-70
2022/10/30 13:21:04;;;;;;;;;;;25.10;56.30;;;;;;7617704;19;20022;-70
2022/10/30 13:23:55;;;;;;;17.83;4.65;;;24.80;56.30;;;;;;7599624;19;19923;-70
2022/10/30 13:26:30;;;;;;;19.27;4.22;;;24.60;57.90;;;;;;7588634;19;20007;-69
2022/10/30 13:29:22;;;;;;;14.20;4.10;;;24.60;57.10;;;;;;7605908;19;20034;-69
2022/10/30 13:31:57;;;;;;;17.33;5.53;;;25.20;56.80;;;;;;7618919;19;20014;-70
2022/10/30 13:34:38;;;;;;;16.67;4.80;;;25.50;55.60;;;;;;7622234;19;20015;-70
2022/10/30 13:37:40;;;;;;;21.88;4.75;;;25.10;56.90;;;;;;7612202;19;20308;-70
2022/10/30 13:40:42;;;;;;;18.08;5.22;;;25.40;56.00;;;;;;7606636;19;20018;-70
2022/10/30 13:43:41;;;;;;;17.02;4.82;;;26.70;54.50;;;;;;7608942;19;20445;-70
2022/10/30 13:46:19;;;;;;;20.45;5.10;;;27.70;53.30;;;;;;7597263;19;21151;-70
2022/10/30 13:49:03;;;;;;;15.57;5.15;;;27.30;53.10;;;;;;7606758;19;20018;-70